Terminal Aerodrome Forecast
Issued by NWS

Home | Current Version | Previous Version | Text Only | Print | Product List | Glossary On
Versions: 1 2 3 4 5 6 7 8 9 10 11 12 13 14 15 16 17 18 19 20 21 22 23 24 25 26
000
FTUS44 KMOB 041731
TAFBFM
TAF
KBFM 041731Z 0418/0518 11009G18KT P6SM SCT027
     FM050300 13008KT P6SM SCT250
     FM051100 10006KT 6SM BR SCT030
     FM051500 08012KT P6SM SCT030=

USA.gov is the U.S. government's official web portal to all federal, state and local government web resources and services.